sensor_id;sensor_type;location;lat;lon;timestamp;P1;durP1;ratioP1;P2;durP2;ratioP2
29854;SDS011;16733;48.738;9.106;2023-01-25T00:00:27;34.20;;;12.50;;
29854;SDS011;16733;48.738;9.106;2023-01-25T00:06:16;55.95;;;13.27;;
29854;SDS011;16733;48.738;9.106;2023-01-25T00:08:41;61.65;;;12.85;;
29854;SDS011;16733;48.738;9.106;2023-01-25T00:14:29;28.92;;;10.98;;
29854;SDS011;16733;48.738;9.106;2023-01-25T00:16:54;31.13;;;12.10;;
29854;SDS011;16733;48.738;9.106;2023-01-25T00:22:42;34.17;;;12.30;;
29854;SDS011;16733;48.738;9.106;2023-01-25T00:25:08;32.28;;;12.10;;
29854;SDS011;16733;48.738;9.106;2023-01-25T00:27:34;25.65;;;11.23;;
29854;SDS011;16733;48.738;9.106;2023-01-25T00:29:59;32.20;;;12.50;;
29854;SDS011;16733;48.738;9.106;2023-01-25T00:32:31;26.38;;;11.32;;
29854;SDS011;16733;48.738;9.106;2023-01-25T00:35:12;29.23;;;12.02;;
29854;SDS011;16733;48.738;9.106;2023-01-25T00:37:40;33.40;;;12.90;;
29854;SDS011;16733;48.738;9.106;2023-01-25T00:43:29;26.35;;;11.35;;
29854;SDS011;16733;48.738;9.106;2023-01-25T00:46:00;29.48;;;13.48;;
29854;SDS011;16733;48.738;9.106;2023-01-25T00:48:26;31.95;;;12.98;;
29854;SDS011;16733;48.738;9.106;2023-01-25T00:50:51;31.40;;;13.02;;
29854;SDS011;16733;48.738;9.106;2023-01-25T00:53:17;32.08;;;12.73;;
29854;SDS011;16733;48.738;9.106;2023-01-25T00:55:50;29.00;;;11.68;;
29854;SDS011;16733;48.738;9.106;2023-01-25T00:58:18;36.58;;;11.55;;
29854;SDS011;16733;48.738;9.106;2023-01-25T01:00:44;38.65;;;11.90;;
29854;SDS011;16733;48.738;9.106;2023-01-25T01:03:09;31.83;;;11.95;;
29854;SDS011;16733;48.738;9.106;2023-01-25T01:05:35;30.10;;;12.02;;
29854;SDS011;16733;48.738;9.106;2023-01-25T01:08:01;31.67;;;12.23;;
29854;SDS011;16733;48.738;9.106;2023-01-25T01:10:26;30.33;;;11.70;;
29854;SDS011;16733;48.738;9.106;2023-01-25T01:12:52;35.22;;;12.13;;
29854;SDS011;16733;48.738;9.106;2023-01-25T01:15:18;32.33;;;12.57;;
29854;SDS011;16733;48.738;9.106;2023-01-25T01:17:43;37.15;;;12.63;;
29854;SDS011;16733;48.738;9.106;2023-01-25T01:23:31;27.23;;;11.15;;
29854;SDS011;16733;48.738;9.106;2023-01-25T01:29:18;29.85;;;11.45;;
29854;SDS011;16733;48.738;9.106;2023-01-25T01:31:43;32.28;;;11.63;;
29854;SDS011;16733;48.738;9.106;2023-01-25T01:34:11;27.30;;;11.57;;
29854;SDS011;16733;48.738;9.106;2023-01-25T01:40:00;29.63;;;12.23;;
29854;SDS011;16733;48.738;9.106;2023-01-25T01:42:26;27.77;;;10.60;;
29854;SDS011;16733;48.738;9.106;2023-01-25T01:44:52;28.30;;;12.40;;
29854;SDS011;16733;48.738;9.106;2023-01-25T01:49:45;34.70;;;12.93;;
29854;SDS011;16733;48.738;9.106;2023-01-25T01:52:16;32.63;;;11.95;;
29854;SDS011;16733;48.738;9.106;2023-01-25T01:54:52;26.70;;;11.18;;
29854;SDS011;16733;48.738;9.106;2023-01-25T01:57:47;38.83;;;12.68;;
29854;SDS011;16733;48.738;9.106;2023-01-25T02:00:19;25.75;;;11.38;;
29854;SDS011;16733;48.738;9.106;2023-01-25T02:03:05;27.08;;;11.35;;
29854;SDS011;16733;48.738;9.106;2023-01-25T02:05:45;32.10;;;12.20;;
29854;SDS011;16733;48.738;9.106;2023-01-25T02:08:22;24.10;;;10.95;;
29854;SDS011;16733;48.738;9.106;2023-01-25T02:10:48;29.55;;;12.43;;
29854;SDS011;16733;48.738;9.106;2023-01-25T02:13:15;29.17;;;10.93;;
29854;SDS011;16733;48.738;9.106;2023-01-25T02:15:44;32.38;;;12.32;;
29854;SDS011;16733;48.738;9.106;2023-01-25T02:18:11;25.33;;;11.35;;
29854;SDS011;16733;48.738;9.106;2023-01-25T02:25:47;25.42;;;10.93;;
29854;SDS011;16733;48.738;9.106;2023-01-25T02:28:35;30.77;;;12.35;;
29854;SDS011;16733;48.738;9.106;2023-01-25T02:38:21;26.25;;;10.90;;
29854;SDS011;16733;48.738;9.106;2023-01-25T02:40:51;33.10;;;11.57;;
29854;SDS011;16733;48.738;9.106;2023-01-25T02:43:55;28.98;;;10.23;;
29854;SDS011;16733;48.738;9.106;2023-01-25T02:48:46;30.95;;;11.25;;
29854;SDS011;16733;48.738;9.106;2023-01-25T02:51:13;33.40;;;12.68;;
29854;SDS011;16733;48.738;9.106;2023-01-25T02:57:00;30.42;;;11.43;;
29854;SDS011;16733;48.738;9.106;2023-01-25T02:59:26;28.35;;;10.90;;
29854;SDS011;16733;48.738;9.106;2023-01-25T03:01:52;27.27;;;11.40;;
29854;SDS011;16733;48.738;9.106;2023-01-25T03:04:17;32.60;;;11.10;;
29854;SDS011;16733;48.738;9.106;2023-01-25T03:06:43;34.88;;;12.52;;
29854;SDS011;16733;48.738;9.106;2023-01-25T03:09:09;25.35;;;9.98;;
29854;SDS011;16733;48.738;9.106;2023-01-25T03:11:35;31.63;;;11.85;;
29854;SDS011;16733;48.738;9.106;2023-01-25T03:14:01;32.53;;;11.02;;
29854;SDS011;16733;48.738;9.106;2023-01-25T03:19:49;33.58;;;12.02;;
29854;SDS011;16733;48.738;9.106;2023-01-25T03:22:14;37.08;;;12.00;;
29854;SDS011;16733;48.738;9.106;2023-01-25T03:24:40;31.92;;;11.98;;
29854;SDS011;16733;48.738;9.106;2023-01-25T03:27:05;32.15;;;11.95;;
29854;SDS011;16733;48.738;9.106;2023-01-25T03:29:38;29.08;;;11.75;;
29854;SDS011;16733;48.738;9.106;2023-01-25T03:32:05;35.08;;;13.15;;
29854;SDS011;16733;48.738;9.106;2023-01-25T03:34:31;33.13;;;10.90;;
29854;SDS011;16733;48.738;9.106;2023-01-25T03:36:56;32.75;;;11.45;;
29854;SDS011;16733;48.738;9.106;2023-01-25T03:39:22;26.40;;;11.38;;
29854;SDS011;16733;48.738;9.106;2023-01-25T03:41:48;39.40;;;12.80;;
29854;SDS011;16733;48.738;9.106;2023-01-25T03:44:13;31.92;;;11.50;;
29854;SDS011;16733;48.738;9.106;2023-01-25T03:46:39;24.45;;;10.75;;
29854;SDS011;16733;48.738;9.106;2023-01-25T03:49:06;39.40;;;11.57;;
29854;SDS011;16733;48.738;9.106;2023-01-25T03:51:32;27.42;;;11.30;;
29854;SDS011;16733;48.738;9.106;2023-01-25T03:57:20;28.83;;;10.25;;
29854;SDS011;16733;48.738;9.106;2023-01-25T03:59:45;24.02;;;10.55;;
29854;SDS011;16733;48.738;9.106;2023-01-25T04:02:11;44.42;;;10.68;;
29854;SDS011;16733;48.738;9.106;2023-01-25T04:05:14;30.13;;;10.57;;
29854;SDS011;16733;48.738;9.106;2023-01-25T04:07:40;33.58;;;10.13;;
29854;SDS011;16733;48.738;9.106;2023-01-25T04:10:05;31.48;;;9.70;;
29854;SDS011;16733;48.738;9.106;2023-01-25T04:12:31;26.33;;;9.85;;
29854;SDS011;16733;48.738;9.106;2023-01-25T04:14:57;23.30;;;10.52;;
29854;SDS011;16733;48.738;9.106;2023-01-25T04:17:22;27.80;;;10.80;;
29854;SDS011;16733;48.738;9.106;2023-01-25T04:19:48;34.95;;;11.35;;
29854;SDS011;16733;48.738;9.106;2023-01-25T04:22:14;33.92;;;10.88;;
29854;SDS011;16733;48.738;9.106;2023-01-25T04:24:40;24.80;;;10.57;;
29854;SDS011;16733;48.738;9.106;2023-01-25T04:27:06;21.60;;;8.95;;
29854;SDS011;16733;48.738;9.106;2023-01-25T04:32:54;18.88;;;8.65;;
29854;SDS011;16733;48.738;9.106;2023-01-25T04:35:20;20.05;;;8.63;;
29854;SDS011;16733;48.738;9.106;2023-01-25T04:37:53;22.70;;;9.73;;
29854;SDS011;16733;48.738;9.106;2023-01-25T04:40:19;29.00;;;9.65;;
29854;SDS011;16733;48.738;9.106;2023-01-25T04:42:45;23.80;;;9.45;;
29854;SDS011;16733;48.738;9.106;2023-01-25T04:45:11;37.92;;;9.13;;
29854;SDS011;16733;48.738;9.106;2023-01-25T04:47:36;24.38;;;9.30;;
29854;SDS011;16733;48.738;9.106;2023-01-25T04:50:02;25.23;;;9.75;;
29854;SDS011;16733;48.738;9.106;2023-01-25T04:55:49;29.85;;;10.57;;
29854;SDS011;16733;48.738;9.106;2023-01-25T04:58:15;20.67;;;9.40;;
29854;SDS011;16733;48.738;9.106;2023-01-25T05:00:41;19.98;;;8.80;;
29854;SDS011;16733;48.738;9.106;2023-01-25T05:03:06;36.83;;;10.68;;
29854;SDS011;16733;48.738;9.106;2023-01-25T05:05:32;25.17;;;8.23;;
29854;SDS011;16733;48.738;9.106;2023-01-25T05:07:57;31.40;;;9.32;;
29854;SDS011;16733;48.738;9.106;2023-01-25T05:10:23;27.45;;;9.27;;
29854;SDS011;16733;48.738;9.106;2023-01-25T05:12:48;20.10;;;8.05;;
29854;SDS011;16733;48.738;9.106;2023-01-25T05:18:36;27.05;;;9.40;;
29854;SDS011;16733;48.738;9.106;2023-01-25T05:21:02;20.10;;;8.95;;
29854;SDS011;16733;48.738;9.106;2023-01-25T05:26:50;17.45;;;7.70;;
29854;SDS011;16733;48.738;9.106;2023-01-25T05:29:28;25.27;;;7.97;;
29854;SDS011;16733;48.738;9.106;2023-01-25T05:35:17;20.35;;;7.47;;
29854;SDS011;16733;48.738;9.106;2023-01-25T05:37:43;19.50;;;7.05;;
29854;SDS011;16733;48.738;9.106;2023-01-25T05:43:30;19.20;;;8.00;;
29854;SDS011;16733;48.738;9.106;2023-01-25T05:45:56;18.38;;;7.63;;
29854;SDS011;16733;48.738;9.106;2023-01-25T05:48:22;24.15;;;8.95;;
29854;SDS011;16733;48.738;9.106;2023-01-25T05:50:48;18.15;;;7.78;;
29854;SDS011;16733;48.738;9.106;2023-01-25T05:53:13;20.02;;;8.25;;
29854;SDS011;16733;48.738;9.106;2023-01-25T05:55:39;22.02;;;9.35;;
29854;SDS011;16733;48.738;9.106;2023-01-25T05:58:04;21.15;;;7.80;;
29854;SDS011;16733;48.738;9.106;2023-01-25T06:00:30;20.65;;;8.73;;
29854;SDS011;16733;48.738;9.106;2023-01-25T06:02:58;22.02;;;8.57;;
29854;SDS011;16733;48.738;9.106;2023-01-25T06:05:25;21.27;;;8.52;;
29854;SDS011;16733;48.738;9.106;2023-01-25T06:11:15;16.60;;;7.22;;
29854;SDS011;16733;48.738;9.106;2023-01-25T06:17:05;18.70;;;7.35;;
29854;SDS011;16733;48.738;9.106;2023-01-25T06:19:30;20.15;;;6.95;;
29854;SDS011;16733;48.738;9.106;2023-01-25T06:25:18;20.02;;;8.05;;
29854;SDS011;16733;48.738;9.106;2023-01-25T06:27:43;20.67;;;8.38;;
29854;SDS011;16733;48.738;9.106;2023-01-25T06:33:31;19.40;;;8.23;;
29854;SDS011;16733;48.738;9.106;2023-01-25T06:36:01;27.30;;;9.20;;
29854;SDS011;16733;48.738;9.106;2023-01-25T06:41:53;17.73;;;8.07;;
29854;SDS011;16733;48.738;9.106;2023-01-25T06:44:20;15.27;;;7.43;;
29854;SDS011;16733;48.738;9.106;2023-01-25T06:46:45;20.83;;;8.00;;
29854;SDS011;16733;48.738;9.106;2023-01-25T06:49:11;18.40;;;7.93;;
29854;SDS011;16733;48.738;9.106;2023-01-25T06:51:36;28.38;;;8.77;;
29854;SDS011;16733;48.738;9.106;2023-01-25T06:54:02;15.48;;;7.28;;
29854;SDS011;16733;48.738;9.106;2023-01-25T06:56:30;19.60;;;8.38;;
29854;SDS011;16733;48.738;9.106;2023-01-25T06:58:56;16.48;;;7.97;;
29854;SDS011;16733;48.738;9.106;2023-01-25T07:04:44;18.00;;;7.47;;
29854;SDS011;16733;48.738;9.106;2023-01-25T07:07:09;19.20;;;8.05;;
29854;SDS011;16733;48.738;9.106;2023-01-25T07:09:35;17.85;;;8.20;;
29854;SDS011;16733;48.738;9.106;2023-01-25T07:12:01;22.83;;;8.65;;
29854;SDS011;16733;48.738;9.106;2023-01-25T07:14:29;21.77;;;9.10;;
29854;SDS011;16733;48.738;9.106;2023-01-25T07:16:55;23.20;;;8.15;;
29854;SDS011;16733;48.738;9.106;2023-01-25T07:19:21;17.92;;;7.82;;
29854;SDS011;16733;48.738;9.106;2023-01-25T07:21:46;20.83;;;8.35;;
29854;SDS011;16733;48.738;9.106;2023-01-25T07:24:12;17.95;;;8.50;;
29854;SDS011;16733;48.738;9.106;2023-01-25T07:26:40;23.35;;;9.00;;
29854;SDS011;16733;48.738;9.106;2023-01-25T07:29:07;19.52;;;8.93;;
29854;SDS011;16733;48.738;9.106;2023-01-25T07:31:36;23.05;;;9.75;;
29854;SDS011;16733;48.738;9.106;2023-01-25T07:34:02;18.67;;;7.78;;
29854;SDS011;16733;48.738;9.106;2023-01-25T07:36:29;18.65;;;8.35;;
29854;SDS011;16733;48.738;9.106;2023-01-25T07:38:56;19.75;;;8.38;;
29854;SDS011;16733;48.738;9.106;2023-01-25T07:41:22;18.67;;;8.15;;
29854;SDS011;16733;48.738;9.106;2023-01-25T07:43:49;20.77;;;8.52;;
29854;SDS011;16733;48.738;9.106;2023-01-25T07:46:15;19.42;;;8.57;;
29854;SDS011;16733;48.738;9.106;2023-01-25T07:48:47;19.40;;;8.77;;
29854;SDS011;16733;48.738;9.106;2023-01-25T07:51:15;18.02;;;7.68;;
29854;SDS011;16733;48.738;9.106;2023-01-25T07:54:06;19.95;;;8.02;;
29854;SDS011;16733;48.738;9.106;2023-01-25T07:56:34;19.55;;;7.75;;
29854;SDS011;16733;48.738;9.106;2023-01-25T07:59:02;23.60;;;9.13;;
29854;SDS011;16733;48.738;9.106;2023-01-25T08:01:28;21.15;;;9.05;;
29854;SDS011;16733;48.738;9.106;2023-01-25T08:03:58;17.38;;;8.45;;
29854;SDS011;16733;48.738;9.106;2023-01-25T08:06:25;19.35;;;7.50;;
29854;SDS011;16733;48.738;9.106;2023-01-25T08:09:04;16.55;;;8.30;;
29854;SDS011;16733;48.738;9.106;2023-01-25T08:11:43;16.75;;;8.00;;
29854;SDS011;16733;48.738;9.106;2023-01-25T08:14:09;15.50;;;7.43;;
29854;SDS011;16733;48.738;9.106;2023-01-25T08:16:35;21.02;;;8.45;;
29854;SDS011;16733;48.738;9.106;2023-01-25T08:19:01;20.80;;;8.63;;
29854;SDS011;16733;48.738;9.106;2023-01-25T08:21:29;20.67;;;8.75;;
29854;SDS011;16733;48.738;9.106;2023-01-25T08:23:57;19.90;;;8.02;;
29854;SDS011;16733;48.738;9.106;2023-01-25T08:26:24;15.80;;;7.40;;
29854;SDS011;16733;48.738;9.106;2023-01-25T08:28:50;15.43;;;7.30;;
29854;SDS011;16733;48.738;9.106;2023-01-25T08:31:19;20.75;;;9.77;;
29854;SDS011;16733;48.738;9.106;2023-01-25T08:33:47;22.00;;;9.05;;
29854;SDS011;16733;48.738;9.106;2023-01-25T08:36:13;22.45;;;9.60;;
29854;SDS011;16733;48.738;9.106;2023-01-25T08:38:43;20.27;;;8.75;;
29854;SDS011;16733;48.738;9.106;2023-01-25T08:41:14;18.70;;;9.00;;
29854;SDS011;16733;48.738;9.106;2023-01-25T08:43:42;19.33;;;8.90;;
29854;SDS011;16733;48.738;9.106;2023-01-25T08:46:08;16.48;;;8.40;;
29854;SDS011;16733;48.738;9.106;2023-01-25T08:48:35;20.05;;;9.32;;
29854;SDS011;16733;48.738;9.106;2023-01-25T08:51:01;17.88;;;8.18;;
29854;SDS011;16733;48.738;9.106;2023-01-25T08:53:30;18.67;;;8.25;;
29854;SDS011;16733;48.738;9.106;2023-01-25T08:56:01;19.85;;;9.30;;
29854;SDS011;16733;48.738;9.106;2023-01-25T08:59:19;16.77;;;8.30;;
29854;SDS011;16733;48.738;9.106;2023-01-25T09:01:45;18.70;;;8.13;;
29854;SDS011;16733;48.738;9.106;2023-01-25T09:04:11;18.17;;;8.85;;
29854;SDS011;16733;48.738;9.106;2023-01-25T09:06:36;16.25;;;8.07;;
29854;SDS011;16733;48.738;9.106;2023-01-25T09:09:02;17.48;;;7.88;;
29854;SDS011;16733;48.738;9.106;2023-01-25T09:11:28;17.00;;;8.60;;
29854;SDS011;16733;48.738;9.106;2023-01-25T09:13:54;17.20;;;8.00;;
29854;SDS011;16733;48.738;9.106;2023-01-25T09:16:21;18.60;;;8.05;;
29854;SDS011;16733;48.738;9.106;2023-01-25T09:22:14;20.33;;;8.55;;
29854;SDS011;16733;48.738;9.106;2023-01-25T09:24:40;19.35;;;8.98;;
29854;SDS011;16733;48.738;9.106;2023-01-25T09:27:05;17.83;;;7.93;;
29854;SDS011;16733;48.738;9.106;2023-01-25T09:29:31;16.20;;;7.45;;
29854;SDS011;16733;48.738;9.106;2023-01-25T09:31:56;15.73;;;8.00;;
29854;SDS011;16733;48.738;9.106;2023-01-25T09:34:22;21.40;;;9.55;;
29854;SDS011;16733;48.738;9.106;2023-01-25T09:36:47;15.13;;;7.70;;
29854;SDS011;16733;48.738;9.106;2023-01-25T09:39:13;17.42;;;8.70;;
29854;SDS011;16733;48.738;9.106;2023-01-25T09:41:43;18.83;;;8.40;;
29854;SDS011;16733;48.738;9.106;2023-01-25T09:47:37;19.50;;;8.25;;
29854;SDS011;16733;48.738;9.106;2023-01-25T09:53:38;16.48;;;7.68;;
29854;SDS011;16733;48.738;9.106;2023-01-25T09:56:09;17.08;;;8.07;;
29854;SDS011;16733;48.738;9.106;2023-01-25T10:04:24;15.98;;;7.18;;
29854;SDS011;16733;48.738;9.106;2023-01-25T10:10:17;14.55;;;7.40;;
29854;SDS011;16733;48.738;9.106;2023-01-25T10:12:53;15.98;;;6.82;;
29854;SDS011;16733;48.738;9.106;2023-01-25T10:15:22;13.35;;;6.80;;
29854;SDS011;16733;48.738;9.106;2023-01-25T10:18:05;15.95;;;7.45;;
29854;SDS011;16733;48.738;9.106;2023-01-25T10:20:50;14.88;;;7.70;;
29854;SDS011;16733;48.738;9.106;2023-01-25T10:26:28;15.07;;;6.90;;
29854;SDS011;16733;48.738;9.106;2023-01-25T10:34:57;17.40;;;7.00;;
29854;SDS011;16733;48.738;9.106;2023-01-25T10:37:45;15.57;;;6.95;;
29854;SDS011;16733;48.738;9.106;2023-01-25T10:43:33;17.35;;;8.25;;
29854;SDS011;16733;48.738;9.106;2023-01-25T10:46:00;17.50;;;8.13;;
29854;SDS011;16733;48.738;9.106;2023-01-25T10:48:27;16.95;;;7.18;;
29854;SDS011;16733;48.738;9.106;2023-01-25T10:51:49;17.13;;;7.53;;
29854;SDS011;16733;48.738;9.106;2023-01-25T10:54:15;18.92;;;7.82;;
29854;SDS011;16733;48.738;9.106;2023-01-25T10:56:41;22.67;;;7.90;;
29854;SDS011;16733;48.738;9.106;2023-01-25T11:08:23;18.08;;;8.07;;
29854;SDS011;16733;48.738;9.106;2023-01-25T11:10:55;18.70;;;7.82;;
29854;SDS011;16733;48.738;9.106;2023-01-25T11:13:22;15.77;;;8.63;;
29854;SDS011;16733;48.738;9.106;2023-01-25T11:16:34;21.45;;;8.75;;
29854;SDS011;16733;48.738;9.106;2023-01-25T11:19:02;18.48;;;8.23;;
29854;SDS011;16733;48.738;9.106;2023-01-25T11:25:27;20.80;;;9.15;;
29854;SDS011;16733;48.738;9.106;2023-01-25T11:31:18;17.58;;;8.35;;
29854;SDS011;16733;48.738;9.106;2023-01-25T11:33:45;19.17;;;8.88;;
29854;SDS011;16733;48.738;9.106;2023-01-25T11:50:55;19.25;;;7.95;;
29854;SDS011;16733;48.738;9.106;2023-01-25T12:26:02;22.65;;;9.63;;
29854;SDS011;16733;48.738;9.106;2023-01-25T12:32:02;21.83;;;10.13;;
29854;SDS011;16733;48.738;9.106;2023-01-25T12:34:36;19.83;;;8.65;;
29854;SDS011;16733;48.738;9.106;2023-01-25T12:46:45;19.95;;;9.82;;
29854;SDS011;16733;48.738;9.106;2023-01-25T12:49:30;20.00;;;10.52;;
29854;SDS011;16733;48.738;9.106;2023-01-25T12:55:24;20.45;;;9.70;;
29854;SDS011;16733;48.738;9.106;2023-01-25T13:12:08;23.83;;;9.50;;
29854;SDS011;16733;48.738;9.106;2023-01-25T13:17:57;22.88;;;9.63;;
29854;SDS011;16733;48.738;9.106;2023-01-25T13:23:45;24.15;;;10.35;;
29854;SDS011;16733;48.738;9.106;2023-01-25T13:26:45;18.17;;;9.15;;
29854;SDS011;16733;48.738;9.106;2023-01-25T13:29:55;18.63;;;8.98;;
29854;SDS011;16733;48.738;9.106;2023-01-25T13:37:22;26.98;;;10.45;;
29854;SDS011;16733;48.738;9.106;2023-01-25T13:39:57;20.48;;;9.05;;
29854;SDS011;16733;48.738;9.106;2023-01-25T13:42:24;22.45;;;10.15;;
29854;SDS011;16733;48.738;9.106;2023-01-25T13:47:36;19.70;;;8.88;;
29854;SDS011;16733;48.738;9.106;2023-01-25T13:53:25;23.17;;;9.05;;
29854;SDS011;16733;48.738;9.106;2023-01-25T13:55:57;22.30;;;10.10;;
29854;SDS011;16733;48.738;9.106;2023-01-25T13:58:28;23.77;;;9.98;;
29854;SDS011;16733;48.738;9.106;2023-01-25T14:00:55;20.92;;;9.77;;
29854;SDS011;16733;48.738;9.106;2023-01-25T14:03:32;20.10;;;10.00;;
29854;SDS011;16733;48.738;9.106;2023-01-25T14:06:00;22.40;;;10.10;;
29854;SDS011;16733;48.738;9.106;2023-01-25T14:11:54;24.63;;;10.30;;
29854;SDS011;16733;48.738;9.106;2023-01-25T14:20:19;23.48;;;9.85;;
29854;SDS011;16733;48.738;9.106;2023-01-25T14:28:36;22.83;;;9.50;;
29854;SDS011;16733;48.738;9.106;2023-01-25T14:31:02;22.20;;;9.57;;
29854;SDS011;16733;48.738;9.106;2023-01-25T14:33:30;19.52;;;9.43;;
29854;SDS011;16733;48.738;9.106;2023-01-25T14:39:24;21.73;;;9.68;;
29854;SDS011;16733;48.738;9.106;2023-01-25T14:45:15;24.88;;;10.70;;
29854;SDS011;16733;48.738;9.106;2023-01-25T14:47:41;27.98;;;11.45;;
29854;SDS011;16733;48.738;9.106;2023-01-25T14:53:29;24.63;;;10.82;;
29854;SDS011;16733;48.738;9.106;2023-01-25T14:55:55;19.33;;;9.95;;
29854;SDS011;16733;48.738;9.106;2023-01-25T14:58:21;24.65;;;11.10;;
29854;SDS011;16733;48.738;9.106;2023-01-25T15:04:11;22.00;;;10.82;;
29854;SDS011;16733;48.738;9.106;2023-01-25T15:06:44;25.13;;;10.88;;
29854;SDS011;16733;48.738;9.106;2023-01-25T15:09:30;23.83;;;10.88;;
29854;SDS011;16733;48.738;9.106;2023-01-25T15:14:54;22.13;;;10.45;;
29854;SDS011;16733;48.738;9.106;2023-01-25T15:20:05;22.40;;;10.88;;
29854;SDS011;16733;48.738;9.106;2023-01-25T15:22:31;26.40;;;10.32;;
29854;SDS011;16733;48.738;9.106;2023-01-25T15:24:56;23.83;;;11.45;;
29854;SDS011;16733;48.738;9.106;2023-01-25T15:27:22;21.50;;;10.02;;
29854;SDS011;16733;48.738;9.106;2023-01-25T15:29:48;25.90;;;11.10;;
29854;SDS011;16733;48.738;9.106;2023-01-25T15:32:17;29.88;;;11.77;;
29854;SDS011;16733;48.738;9.106;2023-01-25T15:34:45;27.23;;;12.30;;
29854;SDS011;16733;48.738;9.106;2023-01-25T15:37:13;24.13;;;12.13;;
29854;SDS011;16733;48.738;9.106;2023-01-25T15:39:39;26.55;;;12.60;;
29854;SDS011;16733;48.738;9.106;2023-01-25T15:42:07;29.42;;;11.75;;
29854;SDS011;16733;48.738;9.106;2023-01-25T15:44:33;21.80;;;10.55;;
29854;SDS011;16733;48.738;9.106;2023-01-25T15:46:59;25.70;;;11.52;;
29854;SDS011;16733;48.738;9.106;2023-01-25T15:49:26;23.13;;;10.70;;
29854;SDS011;16733;48.738;9.106;2023-01-25T15:51:55;26.15;;;11.32;;
29854;SDS011;16733;48.738;9.106;2023-01-25T15:54:20;28.35;;;12.43;;
29854;SDS011;16733;48.738;9.106;2023-01-25T15:56:49;24.65;;;11.43;;
29854;SDS011;16733;48.738;9.106;2023-01-25T16:00:13;26.63;;;10.07;;
29854;SDS011;16733;48.738;9.106;2023-01-25T16:02:44;27.65;;;11.52;;
29854;SDS011;16733;48.738;9.106;2023-01-25T16:08:31;28.13;;;11.20;;
29854;SDS011;16733;48.738;9.106;2023-01-25T16:10:58;30.75;;;11.13;;
29854;SDS011;16733;48.738;9.106;2023-01-25T16:13:23;27.02;;;11.07;;
29854;SDS011;16733;48.738;9.106;2023-01-25T16:15:52;26.85;;;11.27;;
29854;SDS011;16733;48.738;9.106;2023-01-25T16:18:20;27.75;;;11.60;;
29854;SDS011;16733;48.738;9.106;2023-01-25T16:20:46;27.33;;;11.15;;
29854;SDS011;16733;48.738;9.106;2023-01-25T16:23:11;28.08;;;11.73;;
29854;SDS011;16733;48.738;9.106;2023-01-25T16:25:40;25.48;;;11.25;;
29854;SDS011;16733;48.738;9.106;2023-01-25T16:28:12;27.60;;;11.38;;
29854;SDS011;16733;48.738;9.106;2023-01-25T16:30:38;28.42;;;11.10;;
29854;SDS011;16733;48.738;9.106;2023-01-25T16:33:05;24.50;;;10.30;;
29854;SDS011;16733;48.738;9.106;2023-01-25T16:35:30;27.70;;;11.40;;
29854;SDS011;16733;48.738;9.106;2023-01-25T16:37:56;26.58;;;9.95;;
29854;SDS011;16733;48.738;9.106;2023-01-25T16:40:23;23.40;;;10.65;;
29854;SDS011;16733;48.738;9.106;2023-01-25T16:46:16;20.63;;;9.27;;
29854;SDS011;16733;48.738;9.106;2023-01-25T16:48:46;22.67;;;9.73;;
29854;SDS011;16733;48.738;9.106;2023-01-25T16:54:35;29.73;;;10.57;;
29854;SDS011;16733;48.738;9.106;2023-01-25T16:57:00;20.92;;;8.98;;
29854;SDS011;16733;48.738;9.106;2023-01-25T16:59:26;30.95;;;10.23;;
29854;SDS011;16733;48.738;9.106;2023-01-25T17:01:52;29.38;;;11.00;;
29854;SDS011;16733;48.738;9.106;2023-01-25T17:04:17;26.83;;;10.20;;
29854;SDS011;16733;48.738;9.106;2023-01-25T17:06:45;26.27;;;10.45;;
29854;SDS011;16733;48.738;9.106;2023-01-25T17:09:13;26.23;;;10.35;;
29854;SDS011;16733;48.738;9.106;2023-01-25T17:11:40;28.60;;;11.20;;
29854;SDS011;16733;48.738;9.106;2023-01-25T17:14:06;31.17;;;11.05;;
29854;SDS011;16733;48.738;9.106;2023-01-25T17:16:33;31.02;;;12.02;;
29854;SDS011;16733;48.738;9.106;2023-01-25T17:19:03;30.23;;;11.88;;
29854;SDS011;16733;48.738;9.106;2023-01-25T17:21:30;25.17;;;10.05;;
29854;SDS011;16733;48.738;9.106;2023-01-25T17:23:57;23.45;;;9.23;;
29854;SDS011;16733;48.738;9.106;2023-01-25T17:29:46;29.08;;;10.73;;
29854;SDS011;16733;48.738;9.106;2023-01-25T17:32:11;21.58;;;10.07;;
29854;SDS011;16733;48.738;9.106;2023-01-25T17:34:37;24.90;;;9.93;;
29854;SDS011;16733;48.738;9.106;2023-01-25T17:40:25;22.98;;;9.27;;
29854;SDS011;16733;48.738;9.106;2023-01-25T17:42:51;19.45;;;7.97;;
29854;SDS011;16733;48.738;9.106;2023-01-25T17:48:38;19.77;;;8.20;;
29854;SDS011;16733;48.738;9.106;2023-01-25T17:51:04;18.58;;;8.30;;
29854;SDS011;16733;48.738;9.106;2023-01-25T17:56:52;20.98;;;8.57;;
29854;SDS011;16733;48.738;9.106;2023-01-25T17:59:18;19.70;;;8.27;;
29854;SDS011;16733;48.738;9.106;2023-01-25T18:01:44;20.73;;;8.80;;
29854;SDS011;16733;48.738;9.106;2023-01-25T18:07:32;20.27;;;8.48;;
29854;SDS011;16733;48.738;9.106;2023-01-25T18:09:57;21.08;;;8.52;;
29854;SDS011;16733;48.738;9.106;2023-01-25T18:12:23;15.90;;;7.53;;
29854;SDS011;16733;48.738;9.106;2023-01-25T18:14:48;18.83;;;8.57;;
29854;SDS011;16733;48.738;9.106;2023-01-25T18:17:14;17.95;;;9.20;;
29854;SDS011;16733;48.738;9.106;2023-01-25T18:19:40;22.27;;;9.00;;
29854;SDS011;16733;48.738;9.106;2023-01-25T18:22:08;19.42;;;8.18;;
29854;SDS011;16733;48.738;9.106;2023-01-25T18:24:34;22.83;;;9.88;;
29854;SDS011;16733;48.738;9.106;2023-01-25T18:27:20;20.13;;;8.48;;
29854;SDS011;16733;48.738;9.106;2023-01-25T18:32:26;20.77;;;8.75;;
29854;SDS011;16733;48.738;9.106;2023-01-25T18:34:54;16.50;;;7.78;;
29854;SDS011;16733;48.738;9.106;2023-01-25T18:40:41;18.52;;;8.68;;
29854;SDS011;16733;48.738;9.106;2023-01-25T18:43:10;20.55;;;8.65;;
29854;SDS011;16733;48.738;9.106;2023-01-25T18:48:59;21.88;;;9.02;;
29854;SDS011;16733;48.738;9.106;2023-01-25T18:51:25;22.98;;;8.57;;
29854;SDS011;16733;48.738;9.106;2023-01-25T18:53:50;22.27;;;9.70;;
29854;SDS011;16733;48.738;9.106;2023-01-25T18:56:17;17.90;;;8.23;;
29854;SDS011;16733;48.738;9.106;2023-01-25T18:58:44;20.88;;;8.77;;
29854;SDS011;16733;48.738;9.106;2023-01-25T19:03:42;23.33;;;8.80;;
29854;SDS011;16733;48.738;9.106;2023-01-25T19:06:08;23.08;;;9.50;;
29854;SDS011;16733;48.738;9.106;2023-01-25T19:08:34;18.55;;;8.68;;
29854;SDS011;16733;48.738;9.106;2023-01-25T19:11:05;23.20;;;9.10;;
29854;SDS011;16733;48.738;9.106;2023-01-25T19:13:33;19.10;;;9.52;;
29854;SDS011;16733;48.738;9.106;2023-01-25T19:18:36;21.70;;;9.52;;
29854;SDS011;16733;48.738;9.106;2023-01-25T19:24:26;25.58;;;9.73;;
29854;SDS011;16733;48.738;9.106;2023-01-25T19:26:52;21.13;;;10.05;;
29854;SDS011;16733;48.738;9.106;2023-01-25T19:32:42;18.10;;;8.20;;
29854;SDS011;16733;48.738;9.106;2023-01-25T19:35:08;22.45;;;8.73;;
29854;SDS011;16733;48.738;9.106;2023-01-25T19:37:33;20.73;;;8.98;;
29854;SDS011;16733;48.738;9.106;2023-01-25T19:43:21;18.90;;;8.82;;
29854;SDS011;16733;48.738;9.106;2023-01-25T19:45:46;19.65;;;8.55;;
29854;SDS011;16733;48.738;9.106;2023-01-25T19:51:35;17.95;;;7.90;;
29854;SDS011;16733;48.738;9.106;2023-01-25T19:54:04;19.20;;;9.40;;
29854;SDS011;16733;48.738;9.106;2023-01-25T19:59:54;16.25;;;7.72;;
29854;SDS011;16733;48.738;9.106;2023-01-25T20:02:19;17.55;;;8.75;;
29854;SDS011;16733;48.738;9.106;2023-01-25T20:08:07;21.90;;;8.82;;